Time;durP1;ratioP1;P1;durP2;ratioP2;P2;SDS_P1;SDS_P2;PMS_P1;PMS_P2;Temp;Humidity;BMP_temperature;BMP_pressure;BME280_temperature;BME280_humidity;BME280_pressure;Samples;Min_cycle;Max_cycle;Signal;HPM_P1;HPM_P2
2021/04/17 00:01:49;;;;;;;1.90;0.80;;;15.30;52.60;;;;;;4959874;28;20042;-40
2021/04/17 00:04:15;;;;;;;1.90;0.95;;;15.30;52.50;;;;;;4959809;28;20027;-40
2021/04/17 00:06:40;;;;;;;2.00;0.77;;;15.30;52.70;;;;;;4959002;29;20494;-39
2021/04/17 00:09:15;;;;;;;1.42;0.68;;;15.30;52.60;;;;;;4958709;28;20046;-39
2021/04/17 00:11:42;;;;;;;0.98;0.57;;;15.40;51.80;;;;;;4956917;29;20035;-40
2021/04/17 00:14:13;;;;;;;1.13;0.70;;;15.50;52.20;;;;;;4956281;29;20047;-40
2021/04/17 00:16:39;;;;;;;1.30;0.65;;;15.80;53.10;;;;;;4956679;29;20063;-40
2021/04/17 00:19:05;;;;;;;0.60;0.60;;;14.90;52.50;;;;;;4956663;29;20035;-40
2021/04/17 00:21:30;;;;;;;0.70;0.50;;;15.30;52.80;;;;;;4956291;29;20055;-40
2021/04/17 00:23:56;;;;;;;1.55;0.77;;;15.30;52.70;;;;;;4956295;29;20027;-40
2021/04/17 00:26:22;;;;;;;1.80;0.90;;;15.30;52.90;;;;;;4956489;29;20074;-40
2021/04/17 00:28:48;;;;;;;1.42;0.82;;;15.40;52.70;;;;;;4956288;29;20029;-39
2021/04/17 00:31:13;;;;;;;0.75;0.70;;;15.20;52.80;;;;;;4956411;29;20114;-39
2021/04/17 00:33:39;;;;;;;2.22;0.80;;;15.30;52.80;;;;;;4956457;29;20122;-40
2021/04/17 00:36:05;;;;;;;0.88;0.80;;;15.20;52.80;;;;;;4956071;29;20062;-39
2021/04/17 00:38:31;;;;;;;2.80;0.70;;;15.40;52.90;;;;;;4956329;29;20083;-40
2021/04/17 00:40:58;;;;;;;1.27;0.85;;;15.20;52.80;;;;;;4956053;29;20027;-40
2021/04/17 00:43:25;;;;;;;1.05;0.60;;;15.20;52.80;;;;;;4956178;28;20038;-40
2021/04/17 00:45:50;;;;;;;1.88;0.70;;;15.10;52.80;;;;;;4956192;29;20020;-41
2021/04/17 00:48:16;;;;;;;1.10;0.55;;;15.20;52.90;;;;;;4956181;29;20025;-39
2021/04/17 00:50:42;;;;;;;1.00;0.77;;;15.30;53.00;;;;;;4956236;29;20023;-39
2021/04/17 00:53:08;;;;;;;1.50;0.90;;;15.10;53.00;;;;;;4956066;29;20106;-40
2021/04/17 00:55:35;;;;;;;1.10;0.70;;;15.20;53.00;;;;;;4955900;29;20386;-40
2021/04/17 00:58:04;;;;;;;1.63;0.88;;;15.10;53.70;;;;;;4956068;29;20070;-40
2021/04/17 01:00:34;;;;;;;1.98;0.75;;;15.80;53.50;;;;;;4956010;29;20102;-40
2021/04/17 01:03:25;;;;;;;1.53;0.50;;;15.00;52.90;;;;;;4956013;29;20035;-40
2021/04/17 01:05:57;;;;;;;2.10;0.57;;;15.20;51.80;;;;;;4955633;29;20282;-39
2021/04/17 01:08:44;;;;;;;0.90;0.35;;;15.10;53.20;;;;;;4954980;29;20483;-40
2021/04/17 01:11:21;;;;;;;1.10;0.68;;;15.10;51.80;;;;;;4955844;29;20118;-39
2021/04/17 01:13:47;;;;;;;2.65;0.52;;;15.10;53.30;;;;;;4955451;29;20069;-40
2021/04/17 01:16:13;;;;;;;2.03;0.50;;;15.10;53.30;;;;;;4955479;29;20045;-39
2021/04/17 01:18:40;;;;;;;1.27;0.60;;;15.10;53.20;;;;;;4955772;29;20023;-40
2021/04/17 01:21:06;;;;;;;3.83;0.80;;;15.50;53.50;;;;;;4954712;28;20114;-40
2021/04/17 01:23:40;;;;;;;1.58;0.98;;;15.10;53.30;;;;;;4955166;29;20027;-39
2021/04/17 01:26:14;;;;;;;0.80;0.60;;;15.00;53.40;;;;;;4955181;29;20031;-40
2021/04/17 01:28:44;;;;;;;1.25;0.52;;;15.50;53.60;;;;;;4955627;29;20424;-40
2021/04/17 01:31:13;;;;;;;1.38;0.85;;;15.00;53.40;;;;;;4955193;29;20051;-40
2021/04/17 01:33:42;;;;;;;1.33;0.70;;;15.00;53.40;;;;;;4955117;29;20031;-40
2021/04/17 01:36:09;;;;;;;0.82;0.60;;;15.00;53.30;;;;;;4955069;29;20027;-40
2021/04/17 01:38:39;;;;;;;0.98;0.68;;;15.00;53.20;;;;;;4955235;29;20067;-39
2021/04/17 01:41:16;;;;;;;1.67;0.60;;;15.00;53.40;;;;;;4955451;29;20031;-41
2021/04/17 01:43:46;;;;;;;1.20;0.60;;;15.00;53.60;;;;;;4955191;28;20394;-40
2021/04/17 01:46:19;;;;;;;0.43;0.40;;;15.00;53.40;;;;;;4954779;29;20027;-40
2021/04/17 01:48:47;;;;;;;0.70;0.55;;;15.00;51.90;;;;;;4954604;29;20032;-39
2021/04/17 01:51:13;;;;;;;0.85;0.45;;;14.90;53.30;;;;;;4955009;29;20023;-40
2021/04/17 01:53:41;;;;;;;1.45;0.50;;;15.00;53.40;;;;;;4954711;29;20031;-40
2021/04/17 01:56:09;;;;;;;1.30;0.52;;;14.90;53.30;;;;;;4954559;29;20118;-42
2021/04/17 01:58:38;;;;;;;0.95;0.70;;;15.00;53.40;;;;;;4954755;29;20034;-39
2021/04/17 02:01:04;;;;;;;1.50;0.65;;;14.90;53.40;;;;;;4954862;29;20023;-39
2021/04/17 02:03:30;;;;;;;0.80;0.40;;;14.90;53.40;;;;;;4954834;29;20060;-39
2021/04/17 02:05:55;;;;;;;1.63;0.70;;;15.00;53.40;;;;;;4954788;29;20143;-40
2021/04/17 02:08:21;;;;;;;1.55;0.60;;;14.90;53.40;;;;;;4954403;29;20023;-39
2021/04/17 02:10:49;;;;;;;1.85;0.80;;;14.70;53.20;;;;;;4954715;29;20122;-40
2021/04/17 02:13:15;;;;;;;0.43;0.43;;;14.90;53.40;;;;;;4954171;29;20043;-40
2021/04/17 02:15:42;;;;;;;1.10;0.50;;;15.30;53.80;;;;;;4954622;29;20020;-40
2021/04/17 02:18:18;;;;;;;0.82;0.40;;;14.90;53.50;;;;;;4954274;29;20079;-39
2021/04/17 02:20:50;;;;;;;2.42;0.70;;;14.90;53.60;;;;;;4954423;29;20558;-39
2021/04/17 02:23:17;;;;;;;1.30;0.50;;;14.90;53.60;;;;;;4954529;29;20382;-40
2021/04/17 02:25:43;;;;;;;2.10;0.70;;;14.90;52.60;;;;;;4954199;29;20435;-40
2021/04/17 02:28:09;;;;;;;1.17;0.90;;;14.80;53.40;;;;;;4954444;29;20082;-40
2021/04/17 02:30:38;;;;;;;0.82;0.40;;;14.80;53.60;;;;;;4954133;29;20035;-40
2021/04/17 02:33:04;;;;;;;1.33;0.50;;;14.80;53.70;;;;;;4953979;28;20024;-40
2021/04/17 02:35:30;;;;;;;0.85;0.70;;;14.80;53.50;;;;;;4936800;29;20040;-40
2021/04/17 02:37:56;;;;;;;1.20;0.38;;;14.80;53.50;;;;;;4953941;29;20434;-40
2021/04/17 02:40:21;;;;;;;2.17;0.60;;;14.80;53.30;;;;;;4954332;29;20038;-40
2021/04/17 02:42:47;;;;;;;3.85;0.80;;;15.00;53.50;;;;;;4954070;28;20024;-40
2021/04/17 02:45:13;;;;;;;0.95;0.40;;;14.80;53.60;;;;;;4953105;29;20028;-40
2021/04/17 02:47:39;;;;;;;0.70;0.65;;;14.80;53.30;;;;;;4954210;29;20063;-39
2021/04/17 02:50:05;;;;;;;1.25;0.52;;;15.50;53.90;;;;;;4953879;29;20038;-40
2021/04/17 02:52:30;;;;;;;0.50;0.40;;;14.80;53.00;;;;;;4954059;29;20367;-40
2021/04/17 02:54:56;;;;;;;1.13;0.60;;;14.70;53.40;;;;;;4954019;29;20106;-40
2021/04/17 02:57:22;;;;;;;1.20;0.60;;;14.70;53.50;;;;;;4953915;29;20386;-39
2021/04/17 02:59:48;;;;;;;0.55;0.50;;;14.70;53.50;;;;;;4953895;29;20449;-40
2021/04/17 03:02:14;;;;;;;0.47;0.45;;;15.40;53.90;;;;;;4953927;29;20023;-40
2021/04/17 03:04:40;;;;;;;0.77;0.63;;;14.70;53.40;;;;;;4953883;29;20015;-40
2021/04/17 03:07:05;;;;;;;1.48;0.55;;;14.50;53.40;;;;;;4953895;29;20115;-40
2021/04/17 03:09:31;;;;;;;0.90;0.50;;;14.70;53.50;;;;;;4953725;29;20023;-40
2021/04/17 03:11:57;;;;;;;0.73;0.52;;;15.30;53.80;;;;;;4952926;29;20470;-40
2021/04/17 03:14:22;;;;;;;1.23;0.77;;;15.30;53.90;;;;;;4953532;28;20043;-41
2021/04/17 03:16:48;;;;;;;0.63;0.50;;;15.10;53.70;;;;;;4953528;29;20078;-40
2021/04/17 03:19:14;;;;;;;1.10;0.40;;;15.80;54.10;;;;;;4952950;29;20035;-40
2021/04/17 03:21:40;;;;;;;0.77;0.57;;;14.70;53.60;;;;;;4953448;29;20390;-40
2021/04/17 03:24:06;;;;;;;0.77;0.47;;;14.60;53.60;;;;;;4953868;29;20027;-40
2021/04/17 03:26:31;;;;;;;1.67;0.73;;;14.70;53.60;;;;;;4953691;29;20050;-39
2021/04/17 03:28:57;;;;;;;1.67;0.93;;;14.70;53.70;;;;;;4953709;29;20026;-40
2021/04/17 03:31:23;;;;;;;0.65;0.50;;;14.60;53.70;;;;;;4953371;29;20027;-39
2021/04/17 03:33:48;;;;;;;1.08;0.70;;;14.60;53.80;;;;;;4953632;29;20020;-40
2021/04/17 03:36:14;;;;;;;1.60;0.70;;;14.60;53.70;;;;;;4953512;29;20031;-40
2021/04/17 03:38:39;;;;;;;0.82;0.60;;;14.70;53.70;;;;;;4953452;29;20027;-39
2021/04/17 03:41:05;;;;;;;0.60;0.50;;;14.70;53.70;;;;;;4953325;29;20031;-40
2021/04/17 03:43:31;;;;;;;0.80;0.70;;;14.60;53.60;;;;;;4953532;28;20012;-39
2021/04/17 03:45:57;;;;;;;1.08;0.63;;;14.60;53.70;;;;;;4956001;29;20546;-39
2021/04/17 03:48:22;;;;;;;1.65;0.60;;;15.40;54.20;;;;;;4957178;29;20059;-40
2021/04/17 03:50:48;;;;;;;2.05;0.50;;;14.60;53.70;;;;;;4957184;29;20494;-39
2021/04/17 03:53:14;;;;;;;0.80;0.68;;;14.50;53.60;;;;;;4956879;29;20019;-40
2021/04/17 03:55:39;;;;;;;2.42;0.60;;;14.60;53.70;;;;;;4957060;29;20038;-40
2021/04/17 03:58:05;;;;;;;0.82;0.50;;;14.60;53.80;;;;;;4957064;29;20039;-40
2021/04/17 04:00:30;;;;;;;0.63;0.57;;;14.50;53.70;;;;;;4956804;29;20110;-39
2021/04/17 04:02:56;;;;;;;1.38;0.63;;;14.60;53.60;;;;;;4956861;29;20027;-39
2021/04/17 04:05:22;;;;;;;1.95;0.70;;;15.30;54.00;;;;;;4956900;29;20451;-40
2021/04/17 04:07:47;;;;;;;1.10;0.55;;;14.50;53.60;;;;;;4939473;29;20234;-40
2021/04/17 04:10:14;;;;;;;1.90;0.60;;;14.50;53.80;;;;;;4956583;29;20055;-39
2021/04/17 04:12:43;;;;;;;0.77;0.50;;;14.60;53.90;;;;;;4956737;29;20471;-39
2021/04/17 04:15:11;;;;;;;0.60;0.50;;;14.50;54.00;;;;;;4956904;29;20062;-40
2021/04/17 04:17:37;;;;;;;0.65;0.52;;;14.50;53.60;;;;;;4956753;29;20122;-39
2021/04/17 04:20:04;;;;;;;1.85;0.60;;;14.50;53.80;;;;;;4956731;29;20063;-40
2021/04/17 04:22:31;;;;;;;0.63;0.63;;;14.50;53.40;;;;;;4939328;29;20027;-40
2021/04/17 04:24:57;;;;;;;1.63;0.70;;;14.50;53.60;;;;;;4956625;29;20039;-40
2021/04/17 04:27:22;;;;;;;0.88;0.55;;;15.10;54.20;;;;;;4956468;29;20027;-40
2021/04/17 04:29:48;;;;;;;1.77;0.95;;;14.40;53.80;;;;;;4956241;29;20050;-40
2021/04/17 04:32:13;;;;;;;0.68;0.40;;;14.30;53.70;;;;;;4956452;29;20106;-39
2021/04/17 04:34:39;;;;;;;0.77;0.50;;;14.40;54.50;;;;;;4956389;29;20485;-40
2021/04/17 04:37:04;;;;;;;2.08;0.50;;;14.40;53.90;;;;;;4956202;29;20039;-40
2021/04/17 04:39:30;;;;;;;0.85;0.70;;;14.40;53.70;;;;;;4956014;29;20027;-39
2021/04/17 04:41:55;;;;;;;1.15;0.70;;;14.60;81.40;;;;;;4938699;28;20027;-40
2021/04/17 04:44:21;;;;;;;0.88;0.57;;;14.40;53.80;;;;;;4956282;29;20058;-40
2021/04/17 04:46:47;;;;;;;1.30;0.60;;;14.40;53.90;;;;;;4955840;29;20027;-39
2021/04/17 04:49:13;;;;;;;1.13;0.55;;;14.40;53.80;;;;;;4956120;29;20027;-39
2021/04/17 04:51:38;;;;;;;0.90;0.60;;;14.40;53.80;;;;;;4956130;29;20475;-39
2021/04/17 04:54:04;;;;;;;1.23;0.68;;;14.30;53.80;;;;;;4956105;29;20474;-39
2021/04/17 04:56:30;;;;;;;1.25;0.70;;;14.40;53.60;;;;;;4955636;28;20039;-40
2021/04/17 04:58:55;;;;;;;1.13;0.75;;;14.40;53.90;;;;;;4955879;29;20123;-40
2021/04/17 05:01:21;;;;;;;1.40;0.70;;;14.40;54.10;;;;;;4955885;29;20039;-39
2021/04/17 05:03:46;;;;;;;0.57;0.50;;;14.30;53.90;;;;;;4955902;29;20027;-40
2021/04/17 05:06:12;;;;;;;0.50;0.50;;;14.30;53.90;;;;;;4955706;29;20494;-40
2021/04/17 05:08:38;;;;;;;1.25;0.70;;;14.30;53.90;;;;;;4955788;29;20047;-39
2021/04/17 05:11:03;;;;;;;0.98;0.65;;;14.80;54.00;;;;;;4955748;29;20015;-39
2021/04/17 05:13:29;;;;;;;2.00;0.47;;;14.30;53.80;;;;;;4955195;29;20451;-40
2021/04/17 05:15:54;;;;;;;1.20;0.55;;;14.30;54.00;;;;;;4955260;29;20027;-40
2021/04/17 05:18:20;;;;;;;0.85;0.60;;;14.30;54.10;;;;;;4955612;29;20028;-40
2021/04/17 05:20:46;;;;;;;1.38;0.60;;;14.50;54.10;;;;;;4955630;29;20042;-40
2021/04/17 05:23:12;;;;;;;1.15;0.57;;;14.30;54.20;;;;;;4955510;29;20390;-40
2021/04/17 05:25:37;;;;;;;1.85;0.77;;;14.30;54.00;;;;;;4955170;29;20019;-39
2021/04/17 05:28:03;;;;;;;1.73;0.63;;;14.20;54.20;;;;;;4955418;29;20035;-37
2021/04/17 05:30:29;;;;;;;0.90;0.68;;;14.30;54.30;;;;;;4955268;29;20031;-40
2021/04/17 05:32:55;;;;;;;1.42;0.57;;;14.30;54.00;;;;;;4955256;29;20400;-40
2021/04/17 05:35:20;;;;;;;1.50;0.75;;;14.30;54.00;;;;;;4955237;29;20031;-40
2021/04/17 05:37:46;;;;;;;2.65;0.90;;;14.30;53.90;;;;;;4954801;29;20050;-39
2021/04/17 05:40:12;;;;;;;2.50;0.85;;;14.30;54.00;;;;;;4954791;29;20026;-40
2021/04/17 05:42:37;;;;;;;1.85;0.60;;;14.30;53.60;;;;;;4954774;28;20027;-38
2021/04/17 05:45:37;;;;;;;1.02;0.60;;;14.30;54.00;;;;;;4955178;29;20027;-38
2021/04/17 05:48:03;;;;;;;1.63;0.55;;;14.40;52.50;;;;;;4955092;29;20015;-39
2021/04/17 05:50:29;;;;;;;2.05;0.60;;;14.50;53.70;;;;;;4954705;29;20496;-39
2021/04/17 05:52:54;;;;;;;0.75;0.60;;;14.50;53.70;;;;;;4954616;29;20025;-40
2021/04/17 05:55:20;;;;;;;1.65;0.57;;;14.40;53.60;;;;;;4954853;29;20115;-40
2021/04/17 05:57:46;;;;;;;0.90;0.57;;;14.60;53.40;;;;;;4954501;29;20133;-41
2021/04/17 06:00:12;;;;;;;1.25;0.60;;;14.70;54.00;;;;;;4954754;29;20055;-40
2021/04/17 06:02:38;;;;;;;1.45;0.68;;;14.70;52.70;;;;;;4954427;29;20020;-39
2021/04/17 06:05:05;;;;;;;0.80;0.60;;;15.40;53.40;;;;;;4954662;29;20023;-39
2021/04/17 06:07:30;;;;;;;1.75;0.60;;;14.80;53.10;;;;;;4954047;28;20046;-39
2021/04/17 06:09:56;;;;;;;1.25;0.95;;;14.80;53.30;;;;;;4954695;29;20180;-39
2021/04/17 06:12:22;;;;;;;0.90;0.40;;;14.80;53.40;;;;;;4954308;29;20030;-40
2021/04/17 06:14:48;;;;;;;1.67;0.70;;;14.70;53.40;;;;;;4954193;29;20090;-39
2021/04/17 06:17:13;;;;;;;1.60;0.80;;;14.80;53.60;;;;;;4954489;29;20066;-38
2021/04/17 06:19:39;;;;;;;0.95;0.60;;;14.70;53.40;;;;;;4954525;29;20451;-39
2021/04/17 06:22:04;;;;;;;1.10;0.50;;;14.70;53.50;;;;;;4954136;29;20023;-39
2021/04/17 06:24:30;;;;;;;2.05;0.50;;;14.90;53.70;;;;;;4954436;29;20090;-40
2021/04/17 06:26:56;;;;;;;0.77;0.63;;;14.70;53.30;;;;;;4954362;29;20466;-41
2021/04/17 06:29:22;;;;;;;0.73;0.50;;;14.70;53.60;;;;;;4954384;29;20055;-38
2021/04/17 06:31:47;;;;;;;1.75;0.73;;;14.80;53.80;;;;;;4961832;28;20118;-40
2021/04/17 06:34:13;;;;;;;0.73;0.50;;;14.70;53.70;;;;;;4973570;28;20561;-40
2021/04/17 06:36:38;;;;;;;0.80;0.60;;;14.70;53.60;;;;;;4973532;28;20470;-39
2021/04/17 06:39:06;;;;;;;1.13;0.40;;;14.80;53.60;;;;;;4973313;28;20027;-39
2021/04/17 06:41:33;;;;;;;3.45;0.50;;;15.00;53.00;;;;;;4973118;28;20474;-39
2021/04/17 06:44:02;;;;;;;0.90;0.60;;;14.80;53.60;;;;;;4973306;28;20023;-39
2021/04/17 06:46:31;;;;;;;1.05;0.57;;;14.80;53.60;;;;;;4973533;28;20030;-39
2021/04/17 06:49:00;;;;;;;1.40;0.80;;;14.90;53.50;;;;;;4973444;28;20362;-39
2021/04/17 06:51:26;;;;;;;0.68;0.43;;;14.90;53.60;;;;;;4973350;28;20031;-39
2021/04/17 06:53:52;;;;;;;0.93;0.55;;;14.90;53.50;;;;;;4973531;28;20082;-39
2021/04/17 06:56:18;;;;;;;0.45;0.40;;;15.10;53.30;;;;;;4973079;28;20039;-39
2021/04/17 06:58:45;;;;;;;1.40;0.57;;;15.40;53.60;;;;;;4955639;28;20466;-39
2021/04/17 07:01:11;;;;;;;1.08;0.68;;;15.60;53.70;;;;;;4972940;28;20062;-39
2021/04/17 07:03:37;;;;;;;1.55;0.60;;;15.10;53.30;;;;;;4972899;28;20014;-39
2021/04/17 07:06:03;;;;;;;2.40;1.10;;;15.10;53.40;;;;;;4973256;28;20451;-39
2021/04/17 07:08:28;;;;;;;0.77;0.63;;;15.10;53.30;;;;;;4973210;28;20459;-39
2021/04/17 07:10:54;;;;;;;1.38;0.45;;;15.10;53.30;;;;;;4973198;28;20018;-39
2021/04/17 07:13:20;;;;;;;1.42;0.40;;;15.10;53.20;;;;;;4972729;28;20046;-39
2021/04/17 07:15:46;;;;;;;2.90;0.70;;;15.20;53.20;;;;;;4973153;28;20038;-39
2021/04/17 07:18:27;;;;;;;0.82;0.60;;;15.10;53.20;;;;;;4973099;28;20035;-40
2021/04/17 07:20:54;;;;;;;1.20;0.88;;;15.20;52.00;;;;;;4977063;28;20045;-38
2021/04/17 07:23:31;;;;;;;1.65;0.55;;;15.50;53.20;;;;;;4976746;28;20031;-40
2021/04/17 07:26:07;;;;;;;1.05;0.88;;;15.30;53.50;;;;;;4976861;28;20027;-40
2021/04/17 07:28:35;;;;;;;0.80;0.50;;;15.30;53.70;;;;;;4976569;28;20035;-40
2021/04/17 07:31:01;;;;;;;1.35;0.80;;;15.40;53.90;;;;;;4976827;28;20038;-39
2021/04/17 07:33:30;;;;;;;3.90;1.13;;;15.50;54.60;;;;;;4977072;28;20355;-40
2021/04/17 07:35:57;;;;;;;3.42;0.73;;;15.50;56.20;;;;;;4976461;28;20030;-39
2021/04/17 07:38:36;;;;;;;3.30;1.10;;;15.60;56.40;;;;;;4976816;28;20031;-40
2021/04/17 07:41:11;;;;;;;7.50;2.13;;;15.60;87.00;;;;;;4976321;28;20031;-40
2021/04/17 07:43:43;;;;;;;6.53;1.00;;;15.50;59.80;;;;;;4976387;28;20035;-39
2021/04/17 07:46:08;;;;;;;2.90;1.00;;;15.80;60.70;;;;;;4976690;28;20058;-40
2021/04/17 07:48:34;;;;;;;4.82;0.80;;;15.60;61.00;;;;;;4976586;28;20023;-40
2021/04/17 07:51:02;;;;;;;4.07;1.00;;;15.60;61.80;;;;;;4976439;28;20066;-40
2021/04/17 07:53:39;;;;;;;2.75;0.75;;;15.70;61.90;;;;;;4976128;28;20051;-40
2021/04/17 07:56:30;;;;;;;3.53;0.90;;;16.20;63.30;;;;;;4976292;28;20038;-40
2021/04/17 07:59:01;;;;;;;2.70;0.88;;;15.60;62.20;;;;;;4976427;28;20057;-40
2021/04/17 08:01:31;;;;;;;3.92;1.00;;;15.60;64.20;;;;;;4976365;28;20023;-40
2021/04/17 08:03:58;;;;;;;2.47;0.90;;;15.60;64.70;;;;;;4976372;28;20089;-40
2021/04/17 08:06:25;;;;;;;2.83;1.05;;;15.60;64.80;;;;;;4976228;28;20038;-40
2021/04/17 08:08:53;;;;;;;2.45;0.90;;;15.60;65.40;;;;;;4976228;28;20038;-40
2021/04/17 08:11:20;;;;;;;2.47;0.77;;;15.60;65.90;;;;;;4976099;28;20054;-40
2021/04/17 08:13:47;;;;;;;2.70;0.73;;;15.30;66.20;;;;;;4975708;28;20051;-40
2021/04/17 08:16:13;;;;;;;1.00;0.65;;;15.70;66.60;;;;;;4958203;28;20058;-39
2021/04/17 08:18:39;;;;;;;2.58;1.00;;;14.60;66.20;;;;;;4975790;28;20124;-40
2021/04/17 08:21:09;;;;;;;3.38;1.00;;;15.80;67.50;;;;;;4975700;28;20474;-40
2021/04/17 08:23:36;;;;;;;;;;;15.80;68.00;;;;;;4976063;28;20030;-40
2021/04/17 08:26:04;;;;;;;4.03;0.98;;;15.90;67.80;;;;;;4975675;28;19909;-40
2021/04/17 08:28:30;;;;;;;4.88;0.90;;;16.00;68.20;;;;;;4975789;28;20031;-40
2021/04/17 08:31:29;;;;;;;5.10;0.80;;;16.00;68.40;;;;;;4975144;28;20091;-40
2021/04/17 08:34:09;;;;;;;2.10;0.70;;;16.10;66.70;;;;;;4975718;28;20416;-40
2021/04/17 08:36:40;;;;;;;2.97;1.17;;;16.30;66.80;;;;;;4975781;28;20093;-40
2021/04/17 08:39:07;;;;;;;3.60;0.98;;;16.30;68.70;;;;;;4975694;28;20030;-40
2021/04/17 08:41:43;;;;;;;2.83;1.00;;;16.50;68.00;;;;;;4975338;28;20042;-40
2021/04/17 08:44:31;;;;;;;2.33;0.90;;;16.50;67.90;;;;;;4975704;28;20015;-40
2021/04/17 08:46:57;;;;;;;2.75;0.88;;;16.70;68.40;;;;;;4975350;28;20039;-40
2021/04/17 08:49:30;;;;;;;2.67;1.00;;;16.70;68.20;;;;;;4975432;28;20391;-40
2021/04/17 08:52:23;;;;;;;2.92;1.10;;;16.80;67.90;;;;;;4941915;28;20045;-40
2021/04/17 08:55:01;;;;;;;2.50;1.15;;;16.90;67.90;;;;;;4967119;28;20486;-40
2021/04/17 08:57:26;;;;;;;1.40;0.90;;;17.00;67.80;;;;;;4975139;28;20594;-40
2021/04/17 08:59:55;;;;;;;2.10;0.95;;;17.90;68.30;;;;;;4975476;28;20039;-40
2021/04/17 09:02:21;;;;;;;2.65;0.50;;;17.10;68.60;;;;;;4957828;28;20053;-39
2021/04/17 09:05:05;;;;;;;1.55;0.43;;;17.20;68.70;;;;;;4975114;28;20023;-41
2021/04/17 09:07:35;;;;;;;5.72;0.70;;;17.20;65.90;;;;;;4975405;28;20386;-40
2021/04/17 09:10:22;;;;;;;1.98;0.60;;;17.70;67.30;;;;;;4975385;28;20367;-40
2021/04/17 09:13:16;;;;;;;4.47;0.70;;;17.40;64.50;;;;;;4975025;28;20039;-40
2021/04/17 09:15:52;;;;;;;4.20;0.82;;;17.40;62.20;;;;;;4974596;28;20523;-40
2021/04/17 09:18:32;;;;;;;1.00;0.90;;;17.30;63.00;;;;;;4975231;28;20042;-40
2021/04/17 09:21:04;;;;;;;4.43;0.80;;;17.40;62.20;;;;;;4975075;28;20058;-40
2021/04/17 09:23:40;;;;;;;4.45;0.70;;;17.50;60.30;;;;;;4975120;28;20022;-40
2021/04/17 09:26:09;;;;;;;6.43;0.80;;;17.50;62.10;;;;;;4975005;28;20125;-40
2021/04/17 09:28:39;;;;;;;1.42;0.40;;;17.60;62.50;;;;;;4974669;28;20066;-40
2021/04/17 09:31:06;;;;;;;;;;;17.90;63.90;;;;;;4975387;28;20066;-40
2021/04/17 09:33:32;;;;;;;1.90;0.70;;;17.70;64.10;;;;;;4974896;28;19910;-40
2021/04/17 09:35:58;;;;;;;3.80;0.68;;;17.90;64.00;;;;;;4974480;28;20058;-41
2021/04/17 09:38:29;;;;;;;1.00;0.35;;;17.90;64.70;;;;;;4974718;28;20054;-40
2021/04/17 09:40:55;;;;;;;6.40;0.57;;;18.00;64.20;;;;;;4974655;28;20037;-40
2021/04/17 09:43:24;;;;;;;3.35;0.80;;;18.00;64.30;;;;;;4973672;28;20034;-40
2021/04/17 09:45:51;;;;;;;2.92;0.80;;;18.10;62.70;;;;;;4974558;28;20027;-40
2021/04/17 09:48:19;;;;;;;2.42;0.60;;;18.10;65.20;;;;;;4974501;28;20073;-40
2021/04/17 09:50:46;;;;;;;1.92;0.70;;;18.30;64.80;;;;;;4974310;28;20046;-41
2021/04/17 09:53:24;;;;;;;2.20;0.55;;;18.30;64.60;;;;;;4974386;28;20027;-40
2021/04/17 09:55:54;;;;;;;1.85;0.60;;;18.90;65.00;;;;;;4974306;28;20027;-41
2021/04/17 09:58:24;;;;;;;3.00;0.80;;;18.30;63.00;;;;;;4974240;28;20069;-40
2021/04/17 10:00:51;;;;;;;2.33;0.73;;;18.30;62.80;;;;;;4974258;28;20413;-38
2021/04/17 10:03:30;;;;;;;1.45;0.40;;;18.40;64.60;;;;;;4973860;28;20548;-40
2021/04/17 10:05:57;;;;;;;2.38;0.47;;;18.30;62.50;;;;;;4973818;28;20050;-40
2021/04/17 10:08:35;;;;;;;1.38;0.60;;;18.30;64.40;;;;;;4973976;28;20027;-41
2021/04/17 10:11:03;;;;;;;1.17;0.40;;;18.50;62.40;;;;;;4974063;28;20168;-40
2021/04/17 10:13:39;;;;;;;1.35;0.60;;;18.40;64.50;;;;;;4973493;28;20082;-40
2021/04/17 10:16:06;;;;;;;4.88;0.50;;;18.40;62.20;;;;;;4973537;28;20082;-40
2021/04/17 10:18:33;;;;;;;4.32;0.90;;;18.40;63.70;;;;;;4973771;28;20296;-40
2021/04/17 10:20:59;;;;;;;1.17;0.63;;;18.50;63.80;;;;;;4973525;28;20046;-40
2021/04/17 10:23:24;;;;;;;1.92;0.57;;;18.50;63.90;;;;;;4973829;28;20022;-40
2021/04/17 10:25:50;;;;;;;2.60;0.60;;;18.80;63.70;;;;;;4973683;28;20343;-40
2021/04/17 10:28:17;;;;;;;1.02;0.60;;;18.40;63.20;;;;;;4973808;28;20098;-40
2021/04/17 10:30:45;;;;;;;0.85;0.45;;;18.50;64.00;;;;;;4973735;28;20034;-40
2021/04/17 10:33:16;;;;;;;1.88;0.65;;;18.60;64.10;;;;;;4973394;28;20067;-40
2021/04/17 10:35:43;;;;;;;1.50;0.57;;;18.40;64.10;;;;;;4973607;28;20027;-40
2021/04/17 10:38:09;;;;;;;1.17;0.43;;;18.40;63.90;;;;;;4973577;28;20414;-40
2021/04/17 10:40:35;;;;;;;1.33;0.60;;;18.20;90.40;;;;;;4973249;28;20031;-40
2021/04/17 10:43:04;;;;;;;0.75;0.70;;;18.30;63.80;;;;;;4973355;28;20039;-40
2021/04/17 10:45:30;;;;;;;2.45;0.60;;;18.40;63.80;;;;;;4973610;28;20122;-40
2021/04/17 10:48:13;;;;;;;0.90;0.40;;;18.30;64.20;;;;;;4973463;28;20058;-40
2021/04/17 10:50:42;;;;;;;1.05;0.60;;;18.20;62.20;;;;;;4955918;28;20033;-40
2021/04/17 10:53:13;;;;;;;0.90;0.60;;;18.30;64.50;;;;;;4972975;28;20617;-40
2021/04/17 10:55:47;;;;;;;1.15;0.50;;;18.30;64.50;;;;;;4973053;28;20479;-41
2021/04/17 10:58:29;;;;;;;0.63;0.50;;;18.30;63.60;;;;;;4955764;28;20490;-40
2021/04/17 11:01:09;;;;;;;0.32;0.20;;;18.30;61.70;;;;;;4973419;28;20031;-40
2021/04/17 11:03:50;;;;;;;0.73;0.43;;;18.30;61.60;;;;;;4973388;28;20020;-40
2021/04/17 11:06:22;;;;;;;0.88;0.38;;;18.30;61.60;;;;;;4973125;28;20075;-40
2021/04/17 11:08:49;;;;;;;0.77;0.55;;;18.30;64.00;;;;;;4973312;28;20054;-40
2021/04/17 11:11:22;;;;;;;2.35;0.50;;;18.50;67.60;;;;;;4973293;28;20027;-40
2021/04/17 11:14:00;;;;;;;2.10;0.40;;;18.80;65.70;;;;;;4972651;28;20059;-40
2021/04/17 11:16:42;;;;;;;3.13;0.68;;;18.60;63.30;;;;;;4972823;28;20621;-40
2021/04/17 11:19:24;;;;;;;1.25;0.50;;;18.50;58.40;;;;;;4973225;28;20121;-41
2021/04/17 11:22:13;;;;;;;3.22;0.50;;;18.60;63.20;;;;;;4973111;28;20049;-41
2021/04/17 11:24:40;;;;;;;1.92;0.40;;;18.40;60.60;;;;;;4973184;28;20035;-40
2021/04/17 11:27:06;;;;;;;3.38;0.70;;;18.40;63.80;;;;;;4972830;28;20023;-40
2021/04/17 11:29:32;;;;;;;3.97;0.35;;;18.60;64.30;;;;;;4973115;28;20026;-40
2021/04/17 11:31:58;;;;;;;1.00;0.60;;;18.90;65.10;;;;;;4972768;28;20050;-40
2021/04/17 11:34:23;;;;;;;1.27;0.40;;;18.70;65.20;;;;;;4973012;28;20117;-40
2021/04/17 11:36:49;;;;;;;1.98;0.70;;;18.70;65.10;;;;;;4972710;28;20038;-40
2021/04/17 11:39:17;;;;;;;1.65;0.40;;;18.60;65.10;;;;;;4973028;28;20030;-40
2021/04/17 11:41:44;;;;;;;1.42;0.55;;;18.70;62.10;;;;;;4972933;28;20027;-40
2021/04/17 11:44:11;;;;;;;2.00;0.60;;;18.80;65.70;;;;;;4972756;28;20030;-40
2021/04/17 11:46:38;;;;;;;1.73;0.40;;;18.60;66.40;;;;;;4972693;28;20030;-41
2021/04/17 11:49:04;;;;;;;0.65;0.50;;;19.10;66.90;;;;;;4972927;28;20019;-40
2021/04/17 11:51:30;;;;;;;2.35;0.60;;;18.50;66.90;;;;;;4972911;28;20038;-40
2021/04/17 11:53:56;;;;;;;2.72;0.52;;;18.60;66.90;;;;;;4972911;28;20370;-40
2021/04/17 11:56:22;;;;;;;1.48;0.50;;;18.50;66.50;;;;;;4972749;28;20034;-40
2021/04/17 11:58:47;;;;;;;4.68;0.60;;;18.60;66.30;;;;;;4972336;28;20173;-40
2021/04/17 12:01:13;;;;;;;3.95;0.45;;;18.80;67.30;;;;;;4972732;28;20106;-40
2021/04/17 12:03:39;;;;;;;3.38;0.77;;;18.50;67.40;;;;;;4972750;28;20053;-40
2021/04/17 12:06:07;;;;;;;1.17;0.45;;;18.50;67.40;;;;;;4973936;28;20023;-40
2021/04/17 12:08:33;;;;;;;1.42;0.50;;;18.60;67.50;;;;;;4976356;28;20031;-40
2021/04/17 12:10:58;;;;;;;1.23;0.57;;;18.50;68.80;;;;;;4958714;28;20046;-40
2021/04/17 12:13:24;;;;;;;0.90;0.45;;;18.50;68.10;;;;;;4975928;28;20043;-40
2021/04/17 12:15:51;;;;;;;3.25;0.60;;;18.30;68.10;;;;;;4975797;28;20027;-40
2021/04/17 12:18:17;;;;;;;1.45;0.70;;;18.50;68.20;;;;;;4976024;28;20030;-39
2021/04/17 12:20:43;;;;;;;0.40;0.38;;;18.70;68.40;;;;;;4975849;28;20027;-40
2021/04/17 12:23:10;;;;;;;0.70;0.40;;;18.60;69.10;;;;;;4975935;28;20023;-40
2021/04/17 12:25:35;;;;;;;2.05;0.50;;;18.80;69.60;;;;;;4975909;28;20030;-40
2021/04/17 12:28:01;;;;;;;0.88;0.50;;;18.60;70.00;;;;;;4975912;28;20031;-40
2021/04/17 12:30:27;;;;;;;3.10;1.00;;;18.50;70.20;;;;;;4975593;28;20426;-40
2021/04/17 12:32:52;;;;;;;0.88;0.50;;;18.40;71.60;;;;;;4975397;28;20031;-40
2021/04/17 12:35:20;;;;;;;1.08;0.47;;;18.30;64.90;;;;;;4975612;28;20034;-40
2021/04/17 12:37:47;;;;;;;3.38;0.70;;;18.30;66.00;;;;;;4975372;28;20553;-40
2021/04/17 12:40:13;;;;;;;0.80;0.40;;;18.50;66.40;;;;;;4975524;28;20034;-40
2021/04/17 12:42:39;;;;;;;2.88;0.70;;;18.20;65.20;;;;;;4975492;28;20105;-40
2021/04/17 12:45:07;;;;;;;0.85;0.50;;;18.30;65.30;;;;;;4957973;28;20027;-40
2021/04/17 12:47:32;;;;;;;2.25;0.52;;;18.10;62.70;;;;;;4975095;28;20115;-40
2021/04/17 12:49:58;;;;;;;0.55;0.32;;;18.60;64.90;;;;;;4975477;28;20113;-40
2021/04/17 12:52:23;;;;;;;0.85;0.57;;;18.20;64.80;;;;;;4975079;28;20117;-40
2021/04/17 12:54:49;;;;;;;1.75;0.77;;;18.20;64.60;;;;;;4975263;28;20031;-40